Time;durP1;ratioP1;P1;durP2;ratioP2;P2;SDS_P1;SDS_P2;PMS_P1;PMS_P2;Temp;Humidity;BMP_temperature;BMP_pressure;BME280_temperature;BME280_humidity;BME280_pressure;Samples;Min_cycle;Max_cycle;Signal;HPM_P1;HPM_P2
2021/01/24 00:00:49;;;;;;;11.78;6.45;;;;;;;3.15;69.38;98414.73;2197865;80;28187;-72
2021/01/24 00:03:51;;;;;;;15.13;9.05;;;;;;;3.11;69.43;98413.16;2142006;83;27728;-75
2021/01/24 00:06:53;;;;;;;14.38;9.58;;;;;;;3.10;69.45;98411.45;2142048;83;28788;-76
2021/01/24 00:09:55;;;;;;;12.47;8.10;;;;;;;3.11;69.52;98404.77;2158856;81;31240;-74
2021/01/24 00:12:57;;;;;;;10.65;6.87;;;;;;;3.11;69.41;98407.42;2178937;81;33168;-75
2021/01/24 00:15:59;;;;;;;11.10;7.03;;;;;;;3.12;69.45;98405.61;2179155;81;29722;-76
2021/01/24 00:19:01;;;;;;;10.80;6.72;;;;;;;3.11;69.40;98395.97;2183050;80;27785;-77
2021/01/24 00:22:04;;;;;;;12.13;7.95;;;;;;;3.10;69.41;98396.89;2217802;80;28639;-74
2021/01/24 00:25:07;;;;;;;13.65;8.73;;;;;;;3.08;69.52;98394.34;2204087;80;31763;-76
2021/01/24 00:28:09;;;;;;;12.43;8.30;;;;;;;3.06;69.40;98387.42;2179364;81;33108;-76
2021/01/24 00:31:11;;;;;;;10.43;7.85;;;;;;;3.02;69.49;98390.66;2179144;81;28919;-74
2021/01/24 00:34:16;;;;;;;8.88;6.20;;;;;;;2.99;69.54;98391.68;2179382;81;27838;-71
2021/01/24 00:37:18;;;;;;;8.35;5.40;;;;;;;2.99;69.58;98394.78;2178282;81;29770;-75
2021/01/24 00:40:20;;;;;;;7.67;5.10;;;;;;;2.97;69.52;98398.83;2157467;81;31282;-72
2021/01/24 00:43:22;;;;;;;8.05;5.87;;;;;;;2.96;69.64;98397.12;2179546;81;33301;-77
2021/01/24 00:46:24;;;;;;;5.67;4.33;;;;;;;2.96;69.66;98397.12;2178845;81;28958;-78
2021/01/24 00:49:26;;;;;;;6.80;4.30;;;;;;;2.95;69.59;98397.20;2178669;81;27731;-72
2021/01/24 00:52:30;;;;;;;6.80;4.70;;;;;;;2.93;69.65;98401.71;2179027;81;29799;-76
2021/01/24 00:55:33;;;;;;;6.95;4.85;;;;;;;2.94;69.69;98399.45;2178268;81;31155;-76
2021/01/24 00:58:35;;;;;;;7.37;5.40;;;;;;;2.97;69.77;98397.52;2178978;81;33149;-77
2021/01/24 01:01:37;;;;;;;5.58;4.50;;;;;;;2.99;69.77;98384.20;2178562;81;28804;-74
2021/01/24 01:04:39;;;;;;;5.40;4.17;;;;;;;3.01;69.76;98380.56;2187006;80;27619;-74
2021/01/24 01:07:42;;;;;;;7.95;5.42;;;;;;;3.02;69.64;98381.41;2184170;80;28831;-76
2021/01/24 01:10:44;;;;;;;9.73;6.00;;;;;;;3.05;69.78;98378.61;2174020;81;31254;-72
2021/01/24 01:13:46;;;;;;;12.28;6.85;;;;;;;3.05;69.63;98382.58;2174845;80;33107;-75
2021/01/24 01:16:48;;;;;;;22.35;13.18;;;;;;;3.01;69.61;98381.02;2128601;83;29164;-78
2021/01/24 01:19:50;;;;;;;16.55;8.88;;;;;;;2.96;69.76;98377.77;2191664;79;27753;-79
2021/01/24 01:22:53;;;;;;;10.55;7.37;;;;;;;2.95;69.84;98378.69;2228391;79;29127;-72
2021/01/24 01:25:55;;;;;;;13.28;6.90;;;;;;;2.95;69.86;98374.25;2223118;79;32106;-73
2021/01/24 01:28:57;;;;;;;7.58;6.40;;;;;;;2.93;69.85;98381.39;2217298;80;33186;-75
2021/01/24 01:31:59;;;;;;;10.23;6.35;;;;;;;2.92;69.84;98389.42;2198528;80;29063;-78
2021/01/24 01:35:03;;;;;;;12.43;7.20;;;;;;;2.89;69.89;98375.41;2172954;81;27630;-72
2021/01/24 01:38:05;;;;;;;13.40;8.13;;;;;;;2.88;70.03;98378.98;2141408;83;28832;-74
2021/01/24 01:41:07;;;;;;;14.25;8.18;;;;;;;2.88;70.00;98375.02;2170018;81;31140;-76
2021/01/24 01:44:10;;;;;;;10.70;6.62;;;;;;;2.88;70.08;98375.02;2177649;81;33296;-76
2021/01/24 01:47:17;;;;;;;20.82;10.85;;;;;;;2.91;70.07;98375.80;2204713;79;29201;-73
2021/01/24 01:50:20;;;;;;;17.55;9.03;;;;;;;2.92;70.07;98370.91;2227948;78;27695;-72
2021/01/24 01:53:24;;;;;;;13.10;8.18;;;;;;;2.94;70.09;98361.11;2190729;79;29268;-70
2021/01/24 01:56:26;;;;;;;11.28;7.62;;;;;;;2.95;70.10;98358.38;2216031;80;31221;-75
2021/01/24 01:59:28;;;;;;;14.05;9.28;;;;;;;2.99;70.20;98355.10;2217019;80;33106;-75
2021/01/24 02:03:03;;;;;;;12.45;9.25;;;;;;;2.99;70.10;98352.45;2195573;79;29156;-74
2021/01/24 02:06:33;;;;;;;30.97;14.93;;;;;;;2.94;70.04;98354.50;2177681;81;27696;-73
2021/01/24 02:09:52;;;;;;;20.60;12.85;;;;;;;2.90;70.12;98351.12;2172296;81;28839;-70
2021/01/24 02:13:22;;;;;;;21.85;11.93;;;;;;;2.85;70.18;98343.91;2139267;82;31146;-74
2021/01/24 02:16:25;;;;;;;21.95;12.65;;;;;;;2.82;70.16;98351.99;2116480;81;33140;-75
2021/01/24 02:19:55;;;;;;;28.98;14.83;;;;;;;2.78;70.26;98356.58;2122403;82;29246;-74
2021/01/24 02:22:58;;;;;;;16.70;11.08;;;;;;;2.76;70.34;98350.95;2154930;82;27904;-70
2021/01/24 02:26:32;;;;;;;19.32;12.50;;;;;;;2.71;70.40;98359.12;2126577;82;28836;-71
2021/01/24 02:30:05;;;;;;;19.52;12.60;;;;;;;2.68;70.47;98357.95;2192944;81;32110;-69
2021/01/24 02:33:11;;;;;;;20.80;11.75;;;;;;;2.66;70.57;98351.42;2165341;81;33308;-73
2021/01/24 02:36:13;;;;;;;14.90;11.10;;;;;;;2.69;70.77;98351.73;2114974;84;29392;-75
2021/01/24 02:39:18;;;;;;;13.53;10.58;;;;;;;2.73;70.84;98353.30;2149079;82;27668;-74
2021/01/24 02:42:20;;;;;;;14.03;10.30;;;;;;;2.79;70.94;98350.36;2151990;82;29955;-75
2021/01/24 02:45:23;;;;;;;14.35;10.90;;;;;;;2.84;71.00;98350.97;2168340;82;31143;-76
2021/01/24 02:48:25;;;;;;;17.25;11.68;;;;;;;2.88;71.01;98351.70;2168491;82;33179;-75
2021/01/24 02:51:28;;;;;;;14.55;10.82;;;;;;;2.91;71.03;98352.84;2159765;82;29162;-72
2021/01/24 02:54:31;;;;;;;14.47;10.50;;;;;;;2.93;71.03;98354.95;2168749;82;27626;-75
2021/01/24 02:57:33;;;;;;;14.00;10.70;;;;;;;2.92;70.90;98349.27;2136095;81;29014;-76
2021/01/24 03:00:35;;;;;;;15.93;10.80;;;;;;;2.90;70.96;98353.77;2117973;84;31254;-74
2021/01/24 03:03:37;;;;;;;29.67;16.40;;;;;;;2.88;70.94;98351.70;2156279;82;33217;-69
2021/01/24 03:06:39;;;;;;;26.12;15.00;;;;;;;2.87;70.98;98346.02;2091704;82;29657;-74
2021/01/24 03:09:42;;;;;;;54.58;22.93;;;;;;;2.83;71.03;98346.61;2120008;84;27701;-73
2021/01/24 03:13:12;;;;;;;26.00;14.45;;;;;;;2.80;71.12;98340.63;2135784;81;28918;-69
2021/01/24 03:16:14;;;;;;;33.20;15.83;;;;;;;2.77;71.24;98339.00;2134083;81;32091;-76
2021/01/24 03:19:22;;;;;;;28.77;14.93;;;;;;;2.78;71.38;98336.75;2132922;82;33122;-69
2021/01/24 03:22:24;;;;;;;21.00;14.18;;;;;;;2.81;71.49;98335.28;2124725;83;29245;-73
2021/01/24 03:25:27;;;;;;;20.57;14.07;;;;;;;2.83;71.46;98334.71;2157622;82;28362;-69
2021/01/24 03:28:29;;;;;;;20.05;13.20;;;;;;;2.87;71.58;98327.50;2169794;82;28840;-74
2021/01/24 03:31:32;;;;;;;23.42;16.40;;;;;;;2.89;71.47;98321.67;2142335;82;31167;-75
2021/01/24 03:34:34;;;;;;;23.57;16.97;;;;;;;2.87;71.44;98315.61;2169922;82;33023;-75
2021/01/24 03:37:36;;;;;;;22.30;15.88;;;;;;;2.88;71.59;98310.70;2169929;82;29160;-70
2021/01/24 03:40:38;;;;;;;22.70;15.40;;;;;;;2.88;71.52;98312.87;2145664;82;27837;-77
2021/01/24 03:43:40;;;;;;;20.05;15.35;;;;;;;2.85;71.49;98309.05;2164879;80;29350;-76
2021/01/24 03:46:45;;;;;;;17.85;12.82;;;;;;;2.83;71.54;98311.39;2196298;80;31144;-71
2021/01/24 03:49:46;;;;;;;20.23;14.43;;;;;;;2.79;71.52;98312.02;2141166;81;32950;-70
2021/01/24 03:52:48;;;;;;;21.15;15.25;;;;;;;2.73;71.55;98314.48;2145678;82;28412;-78
2021/01/24 03:55:50;;;;;;;20.55;14.53;;;;;;;2.71;71.69;98311.53;2146134;82;27699;-76
2021/01/24 03:58:52;;;;;;;18.85;14.28;;;;;;;2.70;71.88;98309.82;2146173;82;28042;-71
2021/01/24 04:01:53;;;;;;;15.70;12.03;;;;;;;2.73;72.05;98319.77;2162125;81;31138;-76
2021/01/24 04:04:55;;;;;;;14.78;10.90;;;;;;;2.78;72.04;98317.37;2172360;81;33116;-76
2021/01/24 04:07:57;;;;;;;17.85;12.35;;;;;;;2.81;71.93;98315.90;2150684;81;28421;-74
2021/01/24 04:10:59;;;;;;;16.65;12.73;;;;;;;2.86;71.98;98317.37;2148685;81;27816;-75
2021/01/24 04:14:01;;;;;;;17.35;13.78;;;;;;;2.89;72.02;98319.03;2185120;80;28885;-75
2021/01/24 04:17:04;;;;;;;18.80;13.32;;;;;;;2.91;71.97;98310.52;2216601;80;32129;-78
2021/01/24 04:20:07;;;;;;;16.32;13.50;;;;;;;2.94;71.92;98310.86;2196266;80;34052;-77
2021/01/24 04:23:09;;;;;;;20.52;14.73;;;;;;;2.93;71.94;98309.98;2172804;81;29162;-77
2021/01/24 04:26:13;;;;;;;20.20;14.80;;;;;;;2.93;71.86;98306.50;2141240;83;27693;-76
2021/01/24 04:29:14;;;;;;;21.35;16.40;;;;;;;2.90;71.91;98306.17;2152230;80;29764;-76
2021/01/24 04:32:16;;;;;;;27.40;20.30;;;;;;;2.88;71.93;98308.06;2192530;80;31140;-75
2021/01/24 04:35:18;;;;;;;85.20;46.77;;;;;;;2.87;71.98;98307.67;2217074;80;33081;-73
2021/01/24 04:38:20;;;;;;;21.65;16.35;;;;;;;2.85;72.08;98312.17;2217230;80;29250;-74
2021/01/24 04:41:23;;;;;;;19.92;14.68;;;;;;;2.85;72.10;98309.53;2170031;80;27722;-74
2021/01/24 04:44:25;;;;;;;19.60;14.38;;;;;;;2.85;72.12;98309.05;2178753;81;29782;-74
2021/01/24 04:47:27;;;;;;;18.17;13.80;;;;;;;2.85;72.16;98309.53;2178592;81;31152;-73
2021/01/24 04:50:31;;;;;;;17.87;13.65;;;;;;;2.85;72.11;98303.77;2177740;81;33110;-72
2021/01/24 04:53:33;;;;;;;21.60;16.67;;;;;;;2.85;72.16;98304.24;2179022;81;29169;-72
2021/01/24 04:56:37;;;;;;;23.15;15.50;;;;;;;2.84;72.17;98305.17;2178912;81;27939;-75
2021/01/24 04:59:39;;;;;;;23.52;15.72;;;;;;;2.81;72.18;98296.94;2175938;81;28809;-72
2021/01/24 05:02:41;;;;;;;22.77;15.83;;;;;;;2.79;72.29;98294.84;2164414;81;32084;-74
2021/01/24 05:05:43;;;;;;;20.90;15.40;;;;;;;2.79;72.29;98291.32;2168625;81;33191;-74
2021/01/24 05:08:46;;;;;;;16.25;12.18;;;;;;;2.79;72.31;98299.25;2178137;81;30460;-76
2021/01/24 05:11:51;;;;;;;27.35;21.30;;;;;;;2.74;72.22;98296.36;2159371;81;27736;-72
2021/01/24 05:14:57;;;;;;;21.55;15.45;;;;;;;2.68;72.15;98290.53;2136096;83;28829;-74
2021/01/24 05:18:01;;;;;;;19.48;14.23;;;;;;;2.62;72.31;98286.89;2149500;81;31162;-75
2021/01/24 05:21:04;;;;;;;32.28;22.52;;;;;;;2.59;72.42;98281.27;2169940;81;33117;-75
2021/01/24 05:24:13;;;;;;;24.23;15.93;;;;;;;2.58;72.43;98277.78;2173074;81;30084;-74
2021/01/24 05:27:15;;;;;;;27.95;18.20;;;;;;;2.57;72.54;98280.03;2169441;80;27605;-73
2021/01/24 05:30:24;;;;;;;28.42;18.35;;;;;;;2.52;72.55;98276.76;2173430;81;28769;-76
2021/01/24 05:33:26;;;;;;;64.58;30.65;;;;;;;2.52;72.68;98276.76;2141149;81;32532;-73
2021/01/24 05:36:33;;;;;;;34.98;21.52;;;;;;;2.56;72.80;98278.33;2136144;83;34085;-74
2021/01/24 05:39:35;;;;;;;29.52;18.10;;;;;;;2.59;72.78;98270.70;2159181;81;29205;-76
2021/01/24 05:42:39;;;;;;;27.17;17.57;;;;;;;2.60;72.75;98263.16;2173384;81;27612;-75
2021/01/24 05:45:40;;;;;;;31.05;18.10;;;;;;;2.60;72.74;98257.03;2172619;81;28895;-72
2021/01/24 05:48:50;;;;;;;25.30;16.40;;;;;;;2.59;72.64;98258.80;2172443;81;31131;-76
2021/01/24 05:52:04;;;;;;;22.05;16.62;;;;;;;2.57;72.67;98254.92;2186820;80;33553;-74
2021/01/24 05:55:09;;;;;;;27.10;17.67;;;;;;;2.56;72.68;98255.02;2174071;80;29169;-76
2021/01/24 05:58:18;;;;;;;23.87;16.07;;;;;;;2.55;72.67;98267.84;2164378;81;27705;-74
2021/01/24 06:01:20;;;;;;;21.95;14.53;;;;;;;2.53;72.74;98268.38;2142168;81;29110;-74
2021/01/24 06:04:23;;;;;;;20.25;14.83;;;;;;;2.53;72.86;98270.54;2151718;81;31359;-73
2021/01/24 06:07:25;;;;;;;20.70;14.65;;;;;;;2.54;72.86;98270.09;2136005;83;34081;-70
2021/01/24 06:10:28;;;;;;;18.70;14.07;;;;;;;2.54;72.82;98268.29;2136033;83;29172;-71
2021/01/24 06:13:32;;;;;;;21.15;14.38;;;;;;;2.55;72.98;98267.84;2121219;82;27802;-75
2021/01/24 06:16:38;;;;;;;18.00;12.37;;;;;;;2.58;73.04;98273.82;2147445;82;28877;-76
2021/01/24 06:19:42;;;;;;;21.15;14.23;;;;;;;2.62;73.11;98273.67;2168679;82;31153;-75
2021/01/24 06:23:11;;;;;;;20.30;14.30;;;;;;;2.68;73.13;98270.70;2168676;82;33087;-76
2021/01/24 06:26:15;;;;;;;22.67;14.87;;;;;;;2.73;73.21;98274.82;2179976;80;29325;-74
2021/01/24 06:29:19;;;;;;;19.23;11.37;;;;;;;2.78;73.18;98269.33;2170814;81;27606;-73
2021/01/24 06:32:29;;;;;;;19.60;14.07;;;;;;;2.83;73.14;98274.38;2148681;80;30200;-76
2021/01/24 06:35:32;;;;;;;19.82;13.95;;;;;;;2.86;73.11;98272.42;2103166;84;31153;-75
2021/01/24 06:38:42;;;;;;;21.27;15.23;;;;;;;2.89;73.09;98273.59;2101220;84;34067;-73
2021/01/24 06:41:46;;;;;;;20.82;15.83;;;;;;;2.91;73.03;98278.79;2131919;83;28313;-76
2021/01/24 06:44:49;;;;;;;20.17;14.30;;;;;;;2.90;72.90;98277.08;2178364;81;27675;-73
2021/01/24 06:47:52;;;;;;;21.62;14.25;;;;;;;2.88;72.91;98290.39;2178425;81;28841;-76
2021/01/24 06:50:54;;;;;;;19.42;13.58;;;;;;;2.87;72.97;98295.29;2178727;81;31145;-76
2021/01/24 06:53:56;;;;;;;20.88;14.70;;;;;;;2.85;72.93;98292.34;2171970;80;33165;-75
2021/01/24 06:57:10;;;;;;;19.52;12.88;;;;;;;2.83;72.93;98303.46;2159506;82;29176;-72
2021/01/24 07:00:20;;;;;;;16.25;11.95;;;;;;;2.80;72.96;98300.97;2168862;82;27588;-74
2021/01/24 07:03:23;;;;;;;16.12;12.53;;;;;;;2.80;72.98;98307.58;2200409;80;28829;-73
2021/01/24 07:06:34;;;;;;;16.45;12.53;;;;;;;2.81;73.02;98304.88;2217289;80;31784;-76
2021/01/24 07:09:43;;;;;;;19.00;12.88;;;;;;;2.82;73.02;98303.91;2217146;80;32896;-73
2021/01/24 07:12:45;;;;;;;19.82;13.35;;;;;;;2.85;73.08;98307.73;2184104;80;29368;-73
2021/01/24 07:15:59;;;;;;;18.15;12.40;;;;;;;2.87;73.08;98306.34;2160226;81;27602;-73
2021/01/24 07:19:01;;;;;;;16.40;11.78;;;;;;;2.89;73.10;98308.45;2198481;80;28810;-73
2021/01/24 07:22:04;;;;;;;16.02;12.00;;;;;;;2.89;73.04;98304.48;2104358;83;31141;-74
2021/01/24 07:25:08;;;;;;;17.32;12.73;;;;;;;2.89;73.07;98307.97;2101320;84;33069;-74
2021/01/24 07:28:13;;;;;;;17.37;12.70;;;;;;;2.87;73.04;98303.22;2116547;84;30065;-74
2021/01/24 07:31:15;;;;;;;17.98;13.38;;;;;;;2.87;73.02;98298.41;2101728;83;27645;-72
2021/01/24 07:34:27;;;;;;;17.67;12.07;;;;;;;2.84;72.97;98303.85;2098238;84;28885;-75
2021/01/24 07:37:30;;;;;;;17.35;11.60;;;;;;;2.81;73.04;98304.88;2122010;83;32058;-75
2021/01/24 07:40:32;;;;;;;16.57;11.53;;;;;;;2.80;73.15;98308.45;2113591;84;33078;-75
2021/01/24 07:43:34;;;;;;;16.52;11.78;;;;;;;2.81;73.10;98302.68;2140591;83;28491;-73
2021/01/24 07:46:37;;;;;;;15.63;12.25;;;;;;;2.84;73.13;98303.85;2115422;83;27699;-74
2021/01/24 07:49:39;;;;;;;18.27;12.65;;;;;;;2.86;73.15;98308.60;2065435;84;29008;-74
2021/01/24 07:52:42;;;;;;;16.37;12.10;;;;;;;2.91;73.21;98308.36;2062518;86;32612;-73
2021/01/24 07:55:44;;;;;;;17.23;13.38;;;;;;;2.94;73.21;98308.21;2099534;84;34095;-75
2021/01/24 07:59:08;;;;;;;19.92;13.60;;;;;;;2.97;73.22;98302.77;2099912;84;29174;-73
2021/01/24 08:02:12;;;;;;;24.55;15.50;;;;;;;2.98;73.21;98307.97;2095965;84;28180;-74
2021/01/24 08:05:15;;;;;;;61.98;28.17;;;;;;;3.00;73.21;98299.50;2069525;83;28399;-74
2021/01/24 08:08:17;;;;;;;63.05;32.48;;;;;;;2.99;73.04;98296.45;2063557;84;31175;-75
2021/01/24 08:11:19;;;;;;;76.65;40.00;;;;;;;2.98;73.02;98299.20;2031700;86;34166;-76
2021/01/24 08:14:21;;;;;;;139.65;67.40;;;;;;;2.97;73.12;98301.45;2063561;86;30029;-75
2021/01/24 08:17:25;;;;;;;97.57;49.00;;;;;;;2.97;73.18;98300.13;2061778;86;28352;-76
2021/01/24 08:20:28;;;;;;;87.78;47.13;;;;;;;2.97;73.11;98298.80;2062979;86;29597;-75
2021/01/24 08:23:30;;;;;;;59.93;35.00;;;;;;;2.95;73.04;98298.02;2085947;84;32335;-74
2021/01/24 08:26:37;;;;;;;51.95;29.75;;;;;;;2.98;73.05;98308.45;2051481;84;33118;-74
2021/01/24 08:29:39;;;;;;;49.85;31.00;;;;;;;3.00;73.22;98306.11;2109644;83;28483;-73
2021/01/24 08:32:42;;;;;;;42.80;28.27;;;;;;;3.04;73.24;98307.67;2117756;83;27683;-71
2021/01/24 08:35:48;;;;;;;45.67;28.85;;;;;;;3.09;73.17;98305.23;2087531;84;28892;-72
2021/01/24 08:38:50;;;;;;;;;;;;;;;3.10;73.15;98298.56;2102303;84;31157;-72
2021/01/24 08:41:53;;;;;;;65.55;38.02;;;;;;;3.13;73.19;98297.53;2122470;83;32505;-70
2021/01/24 08:45:06;;;;;;;68.10;37.48;;;;;;;3.14;73.27;98301.89;2100054;84;29218;-73
2021/01/24 08:48:13;;;;;;;57.53;35.60;;;;;;;3.17;73.20;98299.94;2095693;84;27671;-71
2021/01/24 08:51:15;;;;;;;64.30;38.78;;;;;;;3.21;73.20;98299.33;2072448;84;28888;-71
2021/01/24 08:54:25;;;;;;;57.40;35.20;;;;;;;3.27;73.35;98300.31;2094671;84;32011;-74
2021/01/24 08:57:35;;;;;;;44.55;29.27;;;;;;;3.35;73.37;98302.56;2144836;83;33244;-75
2021/01/24 09:00:37;;;;;;;60.75;34.67;;;;;;;3.47;73.41;98310.33;2098965;84;29232;-76
2021/01/24 09:03:42;;;;;;;55.25;31.50;;;;;;;3.59;73.37;98300.41;2119709;83;27536;-74
2021/01/24 09:07:03;;;;;;;59.27;35.08;;;;;;;3.68;73.27;98303.52;2109429;84;29046;-74
2021/01/24 09:10:27;;;;;;;43.90;28.55;;;;;;;3.83;73.29;98307.98;2123228;83;31288;-75
2021/01/24 09:13:29;;;;;;;39.80;26.42;;;;;;;3.93;73.17;98303.04;2151958;82;34060;-71
2021/01/24 09:16:31;;;;;;;41.08;27.37;;;;;;;4.05;73.14;98305.00;2159964;82;30055;-75
2021/01/24 09:19:38;;;;;;;42.85;27.75;;;;;;;4.13;72.99;98306.39;2167145;80;27839;-72
2021/01/24 09:22:40;;;;;;;51.13;30.77;;;;;;;4.20;72.93;98311.72;2182127;80;28895;-75
2021/01/24 09:25:42;;;;;;;33.73;21.07;;;;;;;4.26;72.87;98312.22;2160078;81;32300;-73
2021/01/24 09:28:44;;;;;;;28.07;19.15;;;;;;;4.33;72.72;98318.52;2160073;81;34638;-73
2021/01/24 09:31:47;;;;;;;44.98;25.10;;;;;;;4.38;72.44;98309.84;2160379;81;30199;-72
2021/01/24 09:34:49;;;;;;;46.50;23.27;;;;;;;4.41;72.36;98309.19;2160127;82;27669;-76
2021/01/24 09:37:51;;;;;;;48.05;27.75;;;;;;;4.45;72.36;98316.49;2140494;82;28836;-74
2021/01/24 09:40:53;;;;;;;42.90;24.25;;;;;;;4.50;72.43;98311.80;2159175;82;32026;-74
2021/01/24 09:43:55;;;;;;;27.73;19.23;;;;;;;4.52;72.13;98318.32;2160396;82;34274;-73
2021/01/24 09:46:57;;;;;;;25.80;17.80;;;;;;;4.50;72.18;98311.80;2147268;82;29175;-73
2021/01/24 09:49:59;;;;;;;33.15;20.17;;;;;;;4.54;72.23;98305.83;2128236;83;27746;-73
2021/01/24 09:53:02;;;;;;;55.70;25.75;;;;;;;4.59;72.20;98301.59;2183101;81;30077;-74
2021/01/24 09:56:05;;;;;;;48.58;29.95;;;;;;;4.67;72.33;98297.55;2116125;83;32289;-71
2021/01/24 09:59:07;;;;;;;34.90;25.23;;;;;;;4.77;72.22;98294.37;2102786;84;33983;-72
2021/01/24 10:02:10;;;;;;;45.33;30.08;;;;;;;4.84;72.05;98291.73;2121777;82;30035;-71
2021/01/24 10:05:12;;;;;;;51.50;34.53;;;;;;;4.87;71.69;98295.54;2109760;82;27700;-70
2021/01/24 10:08:19;;;;;;;40.88;24.47;;;;;;;4.90;71.80;98294.03;2083347;84;28828;-74
2021/01/24 10:11:23;;;;;;;50.40;30.02;;;;;;;4.96;71.81;98299.45;2143785;83;32093;-70
2021/01/24 10:14:25;;;;;;;23.40;16.57;;;;;;;4.99;71.65;98295.30;2099577;84;33177;-75
2021/01/24 10:17:27;;;;;;;26.12;17.20;;;;;;;5.01;71.46;98290.27;2134967;82;29245;-71
2021/01/24 10:20:30;;;;;;;22.82;15.32;;;;;;;5.07;71.56;98285.06;2109573;84;27815;-70
2021/01/24 10:23:32;;;;;;;23.95;18.45;;;;;;;5.10;71.39;98286.21;2108910;83;28924;-73
2021/01/24 10:26:34;;;;;;;26.57;18.57;;;;;;;5.14;71.61;98277.13;2109592;84;32241;-74
2021/01/24 10:29:36;;;;;;;21.23;14.30;;;;;;;5.11;70.65;98274.66;2098219;84;33114;-70
2021/01/24 10:32:42;;;;;;;45.23;38.75;;;;;;;5.10;70.69;98264.14;2081363;84;29169;-69
2021/01/24 10:35:45;;;;;;;21.95;17.87;;;;;;;5.21;71.30;98259.52;2106874;83;27814;-74
2021/01/24 10:38:49;;;;;;;18.65;14.03;;;;;;;5.33;71.05;98259.59;2137185;83;29820;-70
2021/01/24 10:41:51;;;;;;;21.00;15.35;;;;;;;5.43;70.78;98256.39;2116428;81;32117;-70
2021/01/24 10:44:59;;;;;;;21.90;15.63;;;;;;;5.53;70.47;98260.18;2109677;84;33976;-72
2021/01/24 10:48:03;;;;;;;21.60;15.65;;;;;;;5.61;70.50;98257.05;2094138;84;30040;-69
2021/01/24 10:51:07;;;;;;;26.62;17.48;;;;;;;5.73;70.20;98267.38;2145475;82;27766;-69
2021/01/24 10:54:09;;;;;;;29.02;18.95;;;;;;;5.80;70.09;98258.55;2077138;84;28654;-75
2021/01/24 10:57:11;;;;;;;20.90;15.15;;;;;;;5.85;70.25;98262.62;2101835;83;32139;-69
2021/01/24 11:00:16;;;;;;;35.70;28.57;;;;;;;5.83;69.83;98267.17;2095436;83;33566;-70
2021/01/24 11:03:20;;;;;;;22.20;16.40;;;;;;;5.82;70.01;98270.78;2111506;83;29107;-69
2021/01/24 11:06:23;;;;;;;27.85;20.65;;;;;;;5.81;69.89;98273.05;2124923;82;28349;-69
2021/01/24 11:09:25;;;;;;;29.98;22.07;;;;;;;5.76;69.96;98275.17;2099715;83;28849;-70
2021/01/24 11:12:29;;;;;;;34.73;22.17;;;;;;;5.74;69.78;98273.08;2123508;83;32052;-72
2021/01/24 11:15:32;;;;;;;32.33;22.13;;;;;;;5.72;69.86;98278.47;2144410;81;33190;-73
2021/01/24 11:18:34;;;;;;;28.10;19.17;;;;;;;5.74;70.04;98275.25;2183190;81;29211;-72
2021/01/24 11:21:36;;;;;;;25.40;14.87;;;;;;;5.79;70.03;98276.31;2126581;82;28246;-69
2021/01/24 11:24:38;;;;;;;17.67;12.55;;;;;;;5.76;69.53;98278.66;2109268;84;29308;-72
2021/01/24 11:27:41;;;;;;;18.75;13.22;;;;;;;5.73;69.63;98277.52;2071565;85;32060;-70
2021/01/24 11:30:44;;;;;;;16.37;12.63;;;;;;;5.77;69.52;98268.91;2124263;83;33248;-74
2021/01/24 11:33:46;;;;;;;34.15;24.75;;;;;;;5.87;69.78;98261.21;2124747;82;29207;-74
2021/01/24 11:36:48;;;;;;;20.90;15.53;;;;;;;5.93;69.42;98260.34;2124561;82;27699;-72
2021/01/24 11:39:50;;;;;;;15.10;12.50;;;;;;;6.01;69.51;98253.70;2116468;81;28832;-74
2021/01/24 11:42:56;;;;;;;16.02;12.18;;;;;;;6.08;68.92;98256.36;2102133;84;32027;-70
2021/01/24 11:45:58;;;;;;;18.75;13.20;;;;;;;6.04;68.76;98249.52;2149476;81;32264;-68
2021/01/24 11:49:01;;;;;;;20.60;15.58;;;;;;;6.02;68.53;98249.63;2138868;82;29840;-70
2021/01/24 11:52:05;;;;;;;22.58;17.02;;;;;;;5.92;68.28;98253.78;2160480;82;27838;-77
2021/01/24 11:55:07;;;;;;;54.93;26.63;;;;;;;5.85;68.59;98261.78;2161261;81;28826;-72
2021/01/24 11:58:10;;;;;;;40.60;23.87;;;;;;;5.81;68.72;98265.58;2136378;81;31144;-73
2021/01/24 12:01:12;;;;;;;22.82;14.45;;;;;;;5.83;68.92;98263.67;2132605;81;33289;-72
2021/01/24 12:04:14;;;;;;;73.95;36.38;;;;;;;5.84;68.69;98273.36;2173928;81;30026;-74
2021/01/24 12:07:17;;;;;;;56.37;29.57;;;;;;;5.82;68.76;98271.27;2117402;83;27632;-76
2021/01/24 12:10:19;;;;;;;34.73;22.65;;;;;;;5.88;68.98;98277.50;2089473;85;29802;-77
2021/01/24 12:13:21;;;;;;;27.32;20.15;;;;;;;5.95;68.87;98276.18;2089316;85;31141;-72
2021/01/24 12:16:24;;;;;;;27.65;21.37;;;;;;;5.99;68.90;98263.08;2126559;83;33083;-73
2021/01/24 12:19:26;;;;;;;19.80;14.73;;;;;;;5.99;68.78;98257.77;2112139;83;30014;-73
2021/01/24 12:22:31;;;;;;;22.45;16.37;;;;;;;6.02;68.74;98254.08;2069442;86;27730;-77
2021/01/24 12:25:33;;;;;;;19.50;14.28;;;;;;;6.04;68.57;98250.36;2069318;84;28912;-70
2021/01/24 12:28:35;;;;;;;29.98;18.87;;;;;;;5.99;68.34;98248.46;2069303;86;31610;-75
2021/01/24 12:31:37;;;;;;;33.90;22.52;;;;;;;5.95;68.20;98256.73;2076102;83;34026;-70
2021/01/24 12:34:40;;;;;;;35.03;24.43;;;;;;;5.88;68.19;98245.61;2076495;85;30411;-71
2021/01/24 12:37:42;;;;;;;26.82;19.12;;;;;;;5.84;68.52;98244.97;2117531;83;27679;-74
2021/01/24 12:40:44;;;;;;;26.75;17.20;;;;;;;5.81;68.52;98240.33;2124415;83;28808;-76
2021/01/24 12:43:50;;;;;;;20.62;14.80;;;;;;;5.78;68.44;98232.09;2105048;83;31162;-70
2021/01/24 12:46:52;;;;;;;;;;;;;;;5.79;68.56;98236.45;2054477;86;34245;-75
2021/01/24 12:49:54;;;;;;;22.80;14.45;;;;;;;5.89;68.70;98232.25;2015585;87;29243;-72
2021/01/24 12:52:58;;;;;;;27.27;16.95;;;;;;;5.98;68.67;98245.88;2112185;83;27590;-72
2021/01/24 12:56:00;;;;;;;21.75;14.25;;;;;;;5.96;68.35;98254.45;2091657;83;28832;-69
2021/01/24 12:59:03;;;;;;;22.55;15.98;;;;;;;5.89;68.00;98256.63;2091033;85;32075;-73
2021/01/24 13:02:06;;;;;;;24.67;15.90;;;;;;;5.84;68.25;98252.09;2098455;83;33137;-76
2021/01/24 13:05:11;;;;;;;23.65;16.60;;;;;;;5.76;67.94;98257.41;2098276;84;30189;-69
2021/01/24 13:08:13;;;;;;;64.20;43.85;;;;;;;5.70;68.32;98255.61;2103696;84;28249;-71
2021/01/24 13:11:16;;;;;;;28.20;18.12;;;;;;;5.65;68.25;98259.89;2115373;83;28821;-75
2021/01/24 13:14:18;;;;;;;21.23;14.13;;;;;;;5.56;68.20;98263.11;2141391;81;32131;-69
2021/01/24 13:17:23;;;;;;;24.45;14.98;;;;;;;5.44;68.04;98262.09;2141890;83;33502;-71
2021/01/24 13:20:26;;;;;;;24.32;15.70;;;;;;;5.30;67.91;98269.07;2121945;83;29159;-76
2021/01/24 13:23:31;;;;;;;22.75;15.48;;;;;;;5.19;68.15;98265.39;2106356;83;27754;-69
2021/01/24 13:26:33;;;;;;;23.27;16.23;;;;;;;5.12;68.33;98262.25;2098625;84;29831;-75
2021/01/24 13:29:36;;;;;;;23.12;15.60;;;;;;;5.06;68.41;98263.94;2152543;81;32177;-75
2021/01/24 13:32:42;;;;;;;25.00;15.30;;;;;;;4.96;68.66;98265.83;2119565;83;33296;-73
2021/01/24 13:35:44;;;;;;;23.73;14.53;;;;;;;4.97;68.97;98262.69;2105961;83;29336;-73
2021/01/24 13:38:49;;;;;;;22.62;15.20;;;;;;;5.01;69.03;98268.20;2105881;84;27692;-76
2021/01/24 13:41:51;;;;;;;20.97;14.63;;;;;;;5.01;68.95;98264.22;2113938;83;28840;-69
2021/01/24 13:44:55;;;;;;;22.17;14.93;;;;;;;5.04;68.86;98261.84;2140899;83;32125;-76
2021/01/24 13:47:57;;;;;;;25.82;16.85;;;;;;;5.01;68.73;98262.89;2141858;83;33109;-75
2021/01/24 13:50:59;;;;;;;27.42;19.02;;;;;;;5.04;69.14;98257.86;2123752;83;29221;-76
2021/01/24 13:54:01;;;;;;;29.00;19.42;;;;;;;5.01;69.04;98260.23;2098568;84;28272;-69
2021/01/24 13:57:06;;;;;;;30.05;18.45;;;;;;;4.98;68.99;98262.58;2124062;83;28724;-73
2021/01/24 14:00:11;;;;;;;24.95;17.75;;;;;;;4.86;68.83;98264.19;2145704;81;30331;-70
2021/01/24 14:03:20;;;;;;;27.77;17.73;;;;;;;4.73;69.04;98262.34;2113731;82;33187;-73
2021/01/24 14:06:22;;;;;;;31.15;19.15;;;;;;;4.62;69.19;98261.18;2119522;83;28453;-77
2021/01/24 14:09:26;;;;;;;34.80;22.70;;;;;;;4.50;69.31;98257.89;2074437;84;27698;-70
2021/01/24 14:12:29;;;;;;;27.93;17.20;;;;;;;4.43;69.60;98261.86;2112836;83;28826;-77
2021/01/24 14:15:31;;;;;;;25.75;16.93;;;;;;;4.35;69.48;98262.30;2131336;83;31247;-73
2021/01/24 14:18:33;;;;;;;27.50;18.12;;;;;;;4.24;69.67;98266.39;2132224;83;33133;-70